createdAt,value
2019-05-19T00:00:40.179Z,58.59
2019-05-19T00:05:49.554Z,59.10
2019-05-19T00:10:57.376Z,69.89
2019-05-19T00:16:04.996Z,69.76
2019-05-19T00:21:12.604Z,71.28
2019-05-19T00:26:20.223Z,71.12
2019-05-19T00:31:27.845Z,70.93
2019-05-19T00:36:35.443Z,59.02
2019-05-19T00:41:43.065Z,70.30
2019-05-19T00:46:50.797Z,71.80
2019-05-19T00:51:58.480Z,60.53
2019-05-19T00:57:06.317Z,72.83
2019-05-19T01:02:14.141Z,61.86
2019-05-19T01:07:21.753Z,61.91
2019-05-19T01:12:29.344Z,64.11
2019-05-19T01:17:36.943Z,75.43
2019-05-19T01:22:44.546Z,74.72
2019-05-19T01:27:52.117Z,63.38
2019-05-19T01:33:00.040Z,61.76
2019-05-19T01:38:07.649Z,62.72
2019-05-19T01:43:15.373Z,62.78
2019-05-19T01:48:22.975Z,62.15
2019-05-19T01:53:30.649Z,61.08
2019-05-19T01:58:38.241Z,61.99
2019-05-19T02:03:45.913Z,59.93
2019-05-19T02:08:53.529Z,60.92
2019-05-19T02:14:01.250Z,62.38
2019-05-19T02:19:08.845Z,60.88
2019-05-19T02:24:16.454Z,72.89
2019-05-19T02:29:24.068Z,74.56
2019-05-19T02:34:31.666Z,61.38
2019-05-19T02:39:39.849Z,62.35
2019-05-19T02:44:47.493Z,74.78
2019-05-19T02:49:55.105Z,62.26
2019-05-19T02:55:02.717Z,60.52
2019-05-19T03:00:10.321Z,61.08
2019-05-19T03:05:17.943Z,61.91
2019-05-19T03:10:25.565Z,63.58
2019-05-19T03:15:33.168Z,64.39
2019-05-19T03:20:40.787Z,67.18
2019-05-19T03:25:48.409Z,69.10
2019-05-19T03:30:56.006Z,69.15
2019-05-19T03:36:03.662Z,70.57
2019-05-19T03:41:11.233Z,70.08
2019-05-19T03:46:18.915Z,71.29
2019-05-19T03:51:30.814Z,70.76
2019-05-19T03:56:33.670Z,73.00
2019-05-19T04:01:41.376Z,72.44
2019-05-19T04:06:49.028Z,71.27
2019-05-19T04:11:56.626Z,71.55
2019-05-19T04:17:04.285Z,71.63
2019-05-19T04:22:11.899Z,72.44
2019-05-19T04:27:19.794Z,72.61
2019-05-19T04:32:27.386Z,73.05
2019-05-19T04:37:35.361Z,74.16
2019-05-19T04:42:42.946Z,90.77
2019-05-19T04:47:50.560Z,89.89
2019-05-19T04:52:58.153Z,90.69
2019-05-19T04:58:05.756Z,73.43
2019-05-19T05:03:13.359Z,77.42
2019-05-19T05:08:29.807Z,75.78
2019-05-19T05:13:28.249Z,76.23
2019-05-19T05:18:35.901Z,76.74
2019-05-19T05:23:43.488Z,79.16
2019-05-19T05:28:51.149Z,76.49
2019-05-19T05:33:59.043Z,97.44
2019-05-19T05:39:06.718Z,76.60
2019-05-19T05:44:14.426Z,77.63
2019-05-19T05:49:22.327Z,77.24
2019-05-19T05:54:29.937Z,94.06
2019-05-19T05:59:37.637Z,95.81
2019-05-19T06:04:45.260Z,77.12
2019-05-19T06:09:52.864Z,92.04
2019-05-19T06:15:00.505Z,75.28
2019-05-19T06:20:08.210Z,89.59
2019-05-19T06:25:15.310Z,70.68
2019-05-19T06:30:22.930Z,70.32
2019-05-19T06:35:30.544Z,70.31
2019-05-19T06:40:38.160Z,84.50
2019-05-19T06:45:45.847Z,83.69
2019-05-19T06:50:53.439Z,67.00
2019-05-19T06:56:01.085Z,65.37
2019-05-19T07:01:08.677Z,64.43
2019-05-19T07:06:16.309Z,62.80
2019-05-19T07:11:23.933Z,62.02
2019-05-19T07:16:31.653Z,61.62
2019-05-19T07:21:39.651Z,70.53
2019-05-19T07:26:47.333Z,59.48
2019-05-19T07:31:55.021Z,55.82
2019-05-19T07:37:02.683Z,65.51
2019-05-19T07:42:10.382Z,56.74
2019-05-19T07:47:18.005Z,54.86
2019-05-19T07:52:25.626Z,55.57
2019-05-19T07:57:33.228Z,54.07
2019-05-19T08:02:40.854Z,54.15
2019-05-19T08:07:48.450Z,53.73
2019-05-19T08:12:56.170Z,52.77
2019-05-19T08:18:03.765Z,47.51
2019-05-19T08:23:11.381Z,48.01
2019-05-19T08:28:18.974Z,51.09
2019-05-19T08:33:26.657Z,58.60
2019-05-19T08:38:34.245Z,52.23
2019-05-19T08:43:41.986Z,50.04
2019-05-19T08:48:49.634Z,50.73
2019-05-19T08:53:57.346Z,50.60
2019-05-19T08:59:04.869Z,49.66
2019-05-19T09:04:12.572Z,51.09
2019-05-19T09:09:20.181Z,56.01
2019-05-19T09:14:27.786Z,55.22
2019-05-19T09:19:35.393Z,49.69
2019-05-19T09:24:43.010Z,47.36
2019-05-19T09:29:50.652Z,45.51
2019-05-19T09:34:58.337Z,53.39
2019-05-19T09:40:05.946Z,46.53
2019-05-19T09:45:13.580Z,44.82
2019-05-19T09:50:21.193Z,43.90
2019-05-19T09:55:28.815Z,45.46
2019-05-19T10:00:36.632Z,48.82
2019-05-19T10:05:44.225Z,48.03
2019-05-19T10:10:51.917Z,41.52
2019-05-19T10:15:59.524Z,43.51
2019-05-19T10:21:07.137Z,44.25
2019-05-19T10:26:14.757Z,43.51
2019-05-19T10:31:22.514Z,41.43
2019-05-19T10:36:30.138Z,46.78
2019-05-19T10:41:37.773Z,46.40
2019-05-19T10:46:45.365Z,42.32
2019-05-19T10:51:53.065Z,48.33
2019-05-19T10:57:00.664Z,47.95
2019-05-19T11:02:08.277Z,42.42
2019-05-19T11:07:15.901Z,41.99
2019-05-19T11:12:23.501Z,42.20
2019-05-19T11:17:31.185Z,41.56
2019-05-19T11:22:38.781Z,40.69
2019-05-19T11:27:46.505Z,40.79
2019-05-19T11:32:54.061Z,46.24
2019-05-19T11:38:01.939Z,41.86
2019-05-19T11:43:09.525Z,42.11
